Time;durP1;ratioP1;P1;durP2;ratioP2;P2;SDS_P1;SDS_P2;PMS_P1;PMS_P2;Temp;Humidity;BMP_temperature;BMP_pressure;BME280_temperature;BME280_humidity;BME280_pressure;Samples;Min_cycle;Max_cycle;Signal;HPM_P1;HPM_P2
2022/08/07 00:00:18;;;;;;;4.85;3.20;;;;;;;14.23;68.50;102599.75;4907575;29;20071;-44
2022/08/07 00:02:43;;;;;;;4.10;3.22;;;;;;;14.23;68.50;102597.91;4914529;29;20032;-44
2022/08/07 00:05:09;;;;;;;5.32;3.58;;;;;;;14.17;68.33;102598.34;4916911;29;20039;-43
2022/08/07 00:07:34;;;;;;;4.27;3.53;;;;;;;14.10;68.73;102602.31;4908607;29;20132;-45
2022/08/07 00:09:59;;;;;;;5.20;3.50;;;;;;;14.07;69.23;102597.19;4898750;29;20287;-45
2022/08/07 00:12:24;;;;;;;5.37;3.57;;;;;;;14.05;69.05;102591.09;4902462;29;20287;-44
2022/08/07 00:14:49;;;;;;;7.50;3.90;;;;;;;13.98;69.27;102589.75;4914103;29;20815;-43
2022/08/07 00:17:15;;;;;;;4.72;3.60;;;;;;;13.92;69.58;102588.31;4911778;29;20354;-45
2022/08/07 00:19:41;;;;;;;4.70;3.40;;;;;;;13.92;69.29;102582.13;4917477;29;20032;-45
2022/08/07 00:22:06;;;;;;;5.00;3.33;;;;;;;13.85;70.10;102585.16;4917439;29;20424;-47
2022/08/07 00:24:32;;;;;;;5.72;3.42;;;;;;;13.85;69.90;102578.97;4913939;29;20515;-46
2022/08/07 00:26:57;;;;;;;5.50;4.18;;;;;;;13.86;70.24;102578.88;4908129;29;20123;-45
2022/08/07 00:29:25;;;;;;;4.88;3.58;;;;;;;13.84;69.94;102575.47;4917164;29;20064;-45
2022/08/07 00:31:53;;;;;;;5.05;3.60;;;;;;;13.80;69.89;102573.06;4916622;29;20134;-45
2022/08/07 00:34:18;;;;;;;7.03;3.70;;;;;;;13.76;70.30;102575.09;4914635;29;20093;-46
2022/08/07 00:36:44;;;;;;;4.53;3.78;;;;;;;13.75;70.22;102565.34;4907890;29;20024;-44
2022/08/07 00:39:11;;;;;;;6.95;3.63;;;;;;;13.75;70.09;102565.34;4916765;29;20030;-46
2022/08/07 00:41:36;;;;;;;4.32;3.60;;;;;;;13.74;70.07;102563.66;4913708;29;20032;-46
2022/08/07 00:44:01;;;;;;;4.80;4.00;;;;;;;13.71;70.59;102555.81;4907241;29;20107;-46
2022/08/07 00:46:27;;;;;;;5.95;3.83;;;;;;;13.66;70.86;102563.25;4916754;29;20483;-47
2022/08/07 00:48:52;;;;;;;7.57;3.80;;;;;;;13.60;70.30;102559.16;4899976;29;20043;-46
2022/08/07 00:51:17;;;;;;;4.68;4.10;;;;;;;13.61;70.93;102560.88;4961418;23;20046;-78
2022/08/07 00:53:43;;;;;;;4.93;3.72;;;;;;;13.55;71.19;102561.25;4927943;29;20027;-78
2022/08/07 00:56:10;;;;;;;7.25;4.78;;;;;;;13.49;71.21;102567.84;4925938;29;20024;-79
2022/08/07 00:58:35;;;;;;;4.60;4.15;;;;;;;13.48;71.77;102558.09;4934170;29;20067;-79
2022/08/07 01:01:01;;;;;;;4.93;4.18;;;;;;;13.47;71.65;102561.75;4947508;29;20031;-78
2022/08/07 01:03:26;;;;;;;5.03;4.15;;;;;;;13.40;71.62;102556.84;4935804;29;20038;-79
2022/08/07 01:05:54;;;;;;;4.37;3.97;;;;;;;13.37;72.03;102551.69;4936036;29;20062;-79
2022/08/07 01:08:20;;;;;;;4.53;4.03;;;;;;;13.32;72.16;102551.97;4951902;29;20306;-79
2022/08/07 01:10:45;;;;;;;5.95;3.88;;;;;;;13.24;72.22;102548.88;4928296;29;20063;-79
2022/08/07 01:13:11;;;;;;;6.72;4.18;;;;;;;13.28;71.96;102551.28;4922635;29;20086;-78
2022/08/07 01:15:37;;;;;;;7.18;5.30;;;;;;;13.21;72.79;102544.59;4936188;29;20118;-78
2022/08/07 01:18:03;;;;;;;7.10;4.35;;;;;;;13.26;72.08;102545.19;4935836;29;20031;-78
2022/08/07 01:20:34;;;;;;;5.85;4.88;;;;;;;13.26;72.07;102541.66;4936420;29;20043;-78
2022/08/07 01:23:00;;;;;;;4.75;4.35;;;;;;;13.22;72.58;102541.00;4934697;29;20024;-79
2022/08/07 01:25:27;;;;;;;5.95;4.28;;;;;;;13.24;72.61;102540.88;4935653;29;20056;-79
2022/08/07 01:27:54;;;;;;;4.93;4.38;;;;;;;13.19;72.43;102538.50;4928381;29;20032;-78
2022/08/07 01:30:19;;;;;;;4.90;4.38;;;;;;;13.20;72.64;102539.34;4936344;29;20047;-79
2022/08/07 01:32:46;;;;;;;9.38;5.30;;;;;;;13.17;72.71;102537.72;4934564;29;20059;-78
2022/08/07 01:35:11;;;;;;;5.15;4.65;;;;;;;13.14;72.94;102535.28;4932021;29;20027;-79
2022/08/07 01:37:37;;;;;;;11.48;4.82;;;;;;;13.06;73.09;102530.38;4953618;29;20074;-79
2022/08/07 01:40:04;;;;;;;7.60;5.00;;;;;;;13.01;72.83;102532.47;4940020;29;20023;-79
2022/08/07 01:42:30;;;;;;;6.88;4.97;;;;;;;13.03;73.29;102533.22;4943692;29;20503;-79
2022/08/07 01:44:56;;;;;;;5.80;5.28;;;;;;;12.93;73.76;102529.41;4951217;29;20051;-79
2022/08/07 01:47:21;;;;;;;6.82;5.00;;;;;;;12.90;73.37;102526.91;4953618;29;20035;-79
2022/08/07 01:49:47;;;;;;;7.03;4.78;;;;;;;12.92;73.69;102523.22;4922639;29;20111;-79
2022/08/07 01:52:13;;;;;;;5.80;5.18;;;;;;;12.95;73.83;102533.69;4907617;29;20055;-79
2022/08/07 01:54:40;;;;;;;10.73;5.47;;;;;;;12.86;74.12;102530.72;4927781;29;20028;-79
2022/08/07 01:57:17;;;;;;;6.85;5.20;;;;;;;12.90;74.18;102529.59;4915527;29;20063;-78
2022/08/07 01:59:50;;;;;;;7.75;5.32;;;;;;;12.88;74.28;102529.66;4920897;29;20488;-78
2022/08/07 02:02:43;;;;;;;6.60;5.40;;;;;;;12.92;73.33;102533.00;4908792;29;20544;-78
2022/08/07 02:05:19;;;;;;;8.98;5.20;;;;;;;12.86;74.25;102528.91;4905975;29;20046;-79
2022/08/07 02:07:53;;;;;;;6.95;5.50;;;;;;;12.76;73.98;102522.41;4928789;29;20040;-79
2022/08/07 02:10:25;;;;;;;7.53;5.43;;;;;;;12.75;74.44;102528.69;4927705;29;20023;-78
2022/08/07 02:12:53;;;;;;;8.65;5.47;;;;;;;12.74;74.40;102522.50;4918789;29;20039;-78
2022/08/07 02:15:22;;;;;;;8.20;5.90;;;;;;;12.69;74.48;102527.25;4935597;29;20032;-78
2022/08/07 02:17:50;;;;;;;6.05;5.38;;;;;;;12.71;74.46;102525.34;4887051;29;20020;-78
2022/08/07 02:20:16;;;;;;;7.35;5.20;;;;;;;12.71;74.63;102530.66;4920764;29;20088;-78
2022/08/07 02:22:43;;;;;;;9.18;5.40;;;;;;;12.64;75.08;102521.31;4934526;29;20031;-78
2022/08/07 02:25:10;;;;;;;7.78;5.90;;;;;;;12.61;75.01;102517.94;4913058;29;20029;-78
2022/08/07 02:27:38;;;;;;;10.77;5.13;;;;;;;12.56;74.93;102520.91;4910664;29;20112;-78
2022/08/07 02:30:04;;;;;;;6.28;5.47;;;;;;;12.61;75.33;102512.63;4922887;29;20051;-79
2022/08/07 02:32:32;;;;;;;6.55;5.70;;;;;;;12.60;74.94;102511.78;4929506;29;20032;-79
2022/08/07 02:34:59;;;;;;;6.68;5.43;;;;;;;12.58;75.50;102516.34;4932493;29;20028;-79
2022/08/07 02:37:26;;;;;;;8.13;5.20;;;;;;;12.53;75.64;102516.59;4919875;29;20142;-79
2022/08/07 02:39:55;;;;;;;8.93;5.30;;;;;;;12.53;75.46;102516.59;4934936;29;20024;-79
2022/08/07 02:42:20;;;;;;;8.10;5.85;;;;;;;12.47;75.66;102513.44;4919103;29;20028;-79
2022/08/07 02:44:48;;;;;;;6.90;5.47;;;;;;;12.49;75.20;102512.41;4933366;29;20054;-79
2022/08/07 02:47:16;;;;;;;7.40;5.55;;;;;;;12.38;75.88;102514.84;4902290;29;20032;-79
2022/08/07 02:49:42;;;;;;;6.00;5.05;;;;;;;12.44;75.25;102513.63;4904554;29;20032;-78
2022/08/07 02:52:12;;;;;;;5.85;5.25;;;;;;;12.39;75.83;102503.25;4937065;29;20060;-79
2022/08/07 02:54:40;;;;;;;6.78;5.57;;;;;;;12.41;75.61;102501.34;4919573;29;20059;-79
2022/08/07 02:57:09;;;;;;;7.30;5.43;;;;;;;12.37;75.86;102498.00;4928418;29;20055;-79
2022/08/07 02:59:35;;;;;;;6.50;5.13;;;;;;;12.34;76.04;102495.50;4915701;29;20021;-79
2022/08/07 03:02:01;;;;;;;7.68;5.32;;;;;;;12.33;75.70;102500.94;4918892;29;20068;-79
2022/08/07 03:04:27;;;;;;;6.97;5.75;;;;;;;12.29;75.65;102502.91;4936818;29;20043;-79
2022/08/07 03:06:53;;;;;;;6.30;5.18;;;;;;;12.31;75.94;102502.81;4920710;29;20486;-79
2022/08/07 03:09:20;;;;;;;10.27;6.00;;;;;;;12.27;75.95;102503.94;4928405;29;20111;-80
2022/08/07 03:11:46;;;;;;;7.68;6.00;;;;;;;12.26;76.12;102503.09;4896552;29;20437;-80
2022/08/07 03:14:12;;;;;;;5.75;5.25;;;;;;;12.24;75.72;102494.31;4925808;29;20118;-80
2022/08/07 03:16:39;;;;;;;8.60;5.85;;;;;;;12.25;75.92;102503.16;4938594;29;20464;-80
2022/08/07 03:19:05;;;;;;;9.02;5.50;;;;;;;12.21;75.97;102494.50;4937897;29;20026;-80
2022/08/07 03:21:30;;;;;;;10.00;5.68;;;;;;;12.23;75.79;102507.72;4916069;29;20036;-80
2022/08/07 03:23:58;;;;;;;10.45;5.47;;;;;;;12.20;76.12;102506.09;4929268;29;20087;-80
2022/08/07 03:26:32;;;;;;;8.13;6.03;;;;;;;12.12;76.41;102501.19;4929593;29;20034;-80
2022/08/07 03:29:00;;;;;;;9.23;5.85;;;;;;;12.02;76.88;102498.22;4915056;29;20035;-80
2022/08/07 03:31:27;;;;;;;8.20;6.18;;;;;;;12.06;76.30;102501.56;4919097;29;20090;-79
2022/08/07 03:33:56;;;;;;;7.10;5.50;;;;;;;11.97;76.67;102502.94;4919733;29;20032;-80
2022/08/07 03:36:24;;;;;;;6.15;5.55;;;;;;;11.90;76.57;102501.50;4906830;29;20027;-80
2022/08/07 03:38:52;;;;;;;7.07;5.45;;;;;;;11.87;76.04;102499.00;4920136;29;20107;-80
2022/08/07 03:41:18;;;;;;;7.53;6.35;;;;;;;11.90;76.83;102495.31;4904371;29;20020;-80
2022/08/07 03:43:44;;;;;;;7.85;5.43;;;;;;;11.85;77.41;102499.09;4925197;29;20503;-79
2022/08/07 03:46:11;;;;;;;7.03;6.30;;;;;;;11.83;77.41;102493.00;4912383;29;20036;-80
2022/08/07 03:48:37;;;;;;;6.72;5.53;;;;;;;11.94;77.07;102495.13;4937317;29;20387;-80
2022/08/07 03:51:03;;;;;;;9.43;6.28;;;;;;;11.95;76.79;102499.47;4919741;29;20032;-80
2022/08/07 03:53:29;;;;;;;6.55;5.20;;;;;;;11.96;76.86;102511.00;4936494;29;20087;-81
2022/08/07 03:55:58;;;;;;;6.57;5.90;;;;;;;11.97;76.59;102507.38;4937979;29;20112;-80
2022/08/07 03:58:24;;;;;;;6.80;6.10;;;;;;;11.96;76.92;102517.19;4931626;29;20047;-80
2022/08/07 04:00:52;;;;;;;10.15;6.15;;;;;;;11.88;77.05;102508.72;4901363;29;20032;-80
2022/08/07 04:03:18;;;;;;;7.95;6.10;;;;;;;11.87;77.23;102512.31;4908029;29;20396;-80
2022/08/07 04:05:43;;;;;;;9.35;6.32;;;;;;;11.86;77.33;102518.59;4920468;29;20024;-80
2022/08/07 04:08:11;;;;;;;6.95;6.25;;;;;;;11.83;77.79;102516.97;4931902;29;20083;-80
2022/08/07 04:10:38;;;;;;;7.90;6.10;;;;;;;11.85;77.20;102522.19;4913712;29;20036;-80
2022/08/07 04:13:06;;;;;;;6.93;6.22;;;;;;;11.82;77.13;102520.59;4933110;29;20052;-79
2022/08/07 04:15:32;;;;;;;7.80;6.35;;;;;;;11.76;78.09;102523.56;4929663;29;20020;-79
2022/08/07 04:17:58;;;;;;;6.35;5.75;;;;;;;11.77;77.83;102519.94;4908150;29;20515;-79
2022/08/07 04:20:24;;;;;;;6.45;5.82;;;;;;;11.75;78.02;102518.34;4909136;29;20032;-79
2022/08/07 04:22:51;;;;;;;10.10;6.53;;;;;;;11.75;77.64;102524.50;4920775;29;20102;-79
2022/08/07 04:25:18;;;;;;;9.48;6.50;;;;;;;11.70;78.21;102525.72;4920071;29;20032;-79
2022/08/07 04:27:44;;;;;;;8.73;6.72;;;;;;;11.70;78.14;102526.56;4907835;29;20060;-79
2022/08/07 04:30:11;;;;;;;10.98;6.80;;;;;;;11.67;78.54;102521.41;4891927;29;20036;-80
2022/08/07 04:32:36;;;;;;;9.40;6.78;;;;;;;11.65;78.45;102520.63;4919905;29;20068;-80
2022/08/07 04:35:05;;;;;;;8.65;6.25;;;;;;;11.67;77.92;102529.38;4910830;29;20043;-79
2022/08/07 04:37:31;;;;;;;8.65;6.25;;;;;;;11.58;78.25;102533.41;4920353;29;20115;-78
2022/08/07 04:39:56;;;;;;;7.88;6.25;;;;;;;11.60;78.69;102526.19;4924517;29;20024;-79
2022/08/07 04:42:26;;;;;;;7.05;5.85;;;;;;;11.61;78.29;102527.09;4888414;29;20104;-80
2022/08/07 04:44:54;;;;;;;11.18;6.25;;;;;;;11.61;78.20;102527.09;4924482;29;20036;-80
2022/08/07 04:47:52;;;;;;;7.90;6.47;;;;;;;11.66;78.17;102528.53;4903279;29;20032;-79
2022/08/07 04:50:32;;;;;;;8.82;6.57;;;;;;;11.65;78.84;102534.78;4916448;29;20024;-80
2022/08/07 04:53:23;;;;;;;8.70;6.32;;;;;;;11.69;78.43;102534.63;4926181;29;20055;-80
2022/08/07 04:56:04;;;;;;;9.82;6.40;;;;;;;11.70;79.00;102534.53;4892609;29;20028;-80
2022/08/07 04:58:50;;;;;;;6.85;6.15;;;;;;;11.74;78.96;102537.91;4906966;29;20085;-79
2022/08/07 05:01:43;;;;;;;11.85;6.93;;;;;;;11.76;78.46;102534.22;4905416;29;20481;-79
2022/08/07 05:04:17;;;;;;;8.57;6.60;;;;;;;11.75;79.27;102535.16;4909013;29;20039;-79
2022/08/07 05:06:55;;;;;;;12.55;6.70;;;;;;;11.78;79.08;102535.00;4904984;29;20060;-79
2022/08/07 05:09:29;;;;;;;11.18;6.60;;;;;;;11.77;79.64;102543.91;4904101;29;20025;-80
2022/08/07 05:11:59;;;;;;;10.55;6.22;;;;;;;11.80;79.58;102541.09;4902533;29;20722;-80
2022/08/07 05:14:31;;;;;;;9.98;6.25;;;;;;;11.88;80.02;102539.81;4886256;29;20035;-79
2022/08/07 05:17:00;;;;;;;11.40;7.03;;;;;;;11.93;80.47;102540.47;4902954;29;20040;-80
2022/08/07 05:19:33;;;;;;;10.93;6.85;;;;;;;11.96;80.15;102537.63;4903155;29;20036;-80
2022/08/07 05:22:00;;;;;;;8.20;6.80;;;;;;;12.03;80.16;102539.84;4905361;29;20406;-79
2022/08/07 05:24:29;;;;;;;8.25;6.55;;;;;;;12.05;80.36;102541.59;4904602;29;20032;-80
2022/08/07 05:26:59;;;;;;;8.43;6.70;;;;;;;12.12;81.01;102541.13;4904296;29;20049;-80
2022/08/07 05:29:26;;;;;;;8.50;7.05;;;;;;;12.21;81.21;102551.28;4920722;29;20060;-80
2022/08/07 05:31:53;;;;;;;6.82;5.90;;;;;;;12.29;80.82;102550.88;4919480;29;20035;-79
2022/08/07 05:34:20;;;;;;;7.72;6.93;;;;;;;12.35;80.86;102549.66;4908836;29;20112;-79
2022/08/07 05:36:49;;;;;;;9.70;6.97;;;;;;;12.39;81.11;102546.72;4900112;29;20408;-79
2022/08/07 05:39:18;;;;;;;9.07;7.35;;;;;;;12.50;81.18;102547.91;4898748;29;20036;-79
2022/08/07 05:41:46;;;;;;;11.48;6.65;;;;;;;12.59;81.16;102552.72;4910582;29;20505;-79
2022/08/07 05:44:11;;;;;;;7.93;6.43;;;;;;;12.72;80.76;102553.72;4898334;29;20029;-79
2022/08/07 05:46:38;;;;;;;8.93;6.43;;;;;;;12.80;80.57;102553.25;4897986;29;20104;-79
2022/08/07 05:49:10;;;;;;;13.52;7.25;;;;;;;12.88;80.92;102545.66;4898150;29;20036;-79
2022/08/07 05:51:39;;;;;;;13.80;7.28;;;;;;;13.03;80.83;102540.38;4902601;29;20256;-79
2022/08/07 05:54:04;;;;;;;16.35;6.90;;;;;;;13.11;80.68;102544.31;4917099;29;20450;-80
2022/08/07 05:56:32;;;;;;;11.70;7.18;;;;;;;13.26;80.47;102552.34;4910102;29;20092;-80
2022/08/07 05:59:00;;;;;;;8.77;7.00;;;;;;;13.33;79.79;102548.38;4898417;29;20107;-81
2022/08/07 06:01:27;;;;;;;16.48;6.88;;;;;;;13.40;79.73;102551.53;4898061;29;20037;-82
2022/08/07 06:03:57;;;;;;;12.93;7.00;;;;;;;13.55;79.27;102547.91;4894836;29;20032;-82
2022/08/07 06:06:24;;;;;;;11.57;6.55;;;;;;;13.61;78.76;102552.88;4911086;29;20063;-80
2022/08/07 06:08:49;;;;;;;8.32;7.00;;;;;;;13.70;79.16;102554.09;4913886;29;20029;-83
2022/08/07 06:11:15;;;;;;;10.27;6.50;;;;;;;13.76;79.02;102553.72;4896152;29;20035;-83
2022/08/07 06:13:41;;;;;;;11.45;7.20;;;;;;;13.82;78.79;102555.13;4901075;29;20115;-83
2022/08/07 06:16:07;;;;;;;9.32;7.68;;;;;;;13.92;78.20;102558.09;4901133;29;20045;-83
2022/08/07 06:18:32;;;;;;;10.52;7.50;;;;;;;13.94;77.42;102559.72;4902371;29;20129;-84
2022/08/07 06:21:02;;;;;;;11.48;7.35;;;;;;;14.01;77.83;102563.69;4910310;29;20053;-84
2022/08/07 06:23:28;;;;;;;8.90;7.35;;;;;;;14.06;78.49;102558.91;4888537;29;20088;-83
2022/08/07 06:25:55;;;;;;;10.15;7.05;;;;;;;14.16;78.45;102556.53;4909035;29;20052;-82
2022/08/07 06:28:23;;;;;;;11.80;7.57;;;;;;;14.25;76.33;102553.25;4896915;29;20037;-83
2022/08/07 06:30:49;;;;;;;13.37;8.47;;;;;;;14.38;76.02;102550.63;4904100;29;20573;-82
2022/08/07 06:33:14;;;;;;;11.02;7.63;;;;;;;14.49;75.08;102559.75;4901288;29;20036;-82
2022/08/07 06:35:39;;;;;;;9.98;7.57;;;;;;;14.60;74.93;102555.47;4906436;29;20095;-82
2022/08/07 06:38:05;;;;;;;9.70;7.55;;;;;;;14.69;74.70;102556.66;4880347;29;20067;-82
2022/08/07 06:40:44;;;;;;;9.90;7.47;;;;;;;14.93;74.09;102564.84;4899954;29;20389;-82
2022/08/07 06:43:11;;;;;;;10.30;8.32;;;;;;;15.20;74.46;102557.72;4907937;29;20043;-83
2022/08/07 06:45:36;;;;;;;8.82;7.88;;;;;;;15.40;73.00;102546.47;4900446;29;20136;-83
2022/08/07 06:48:04;;;;;;;8.57;7.68;;;;;;;15.64;72.13;102551.94;4887665;29;20116;-82
2022/08/07 06:50:32;;;;;;;9.60;7.72;;;;;;;15.94;70.61;102552.53;4895986;29;20127;-83
2022/08/07 06:52:59;;;;;;;10.93;7.63;;;;;;;16.19;69.34;102548.97;4899961;29;20048;-82
2022/08/07 06:55:27;;;;;;;10.52;8.13;;;;;;;16.36;68.00;102545.03;4900622;29;20028;-82
2022/08/07 06:57:58;;;;;;;10.85;7.85;;;;;;;16.55;68.39;102531.06;4903033;29;20030;-82
2022/08/07 07:00:25;;;;;;;9.30;7.32;;;;;;;16.84;67.86;102536.94;4905220;29;20032;-82
2022/08/07 07:02:51;;;;;;;8.75;7.45;;;;;;;16.96;65.12;102529.78;4911094;29;20036;-82
2022/08/07 07:05:19;;;;;;;7.97;7.20;;;;;;;17.18;65.31;102526.28;4921196;29;20036;-81
2022/08/07 07:07:45;;;;;;;9.70;7.20;;;;;;;17.36;63.68;102527.53;4917866;29;20036;-82
2022/08/07 07:10:12;;;;;;;9.80;6.93;;;;;;;17.53;64.76;102526.19;4901317;29;20028;-82
2022/08/07 07:12:52;;;;;;;7.85;6.93;;;;;;;17.74;64.03;102531.69;4922277;29;20036;-81
2022/08/07 07:15:26;;;;;;;8.73;6.95;;;;;;;18.01;62.80;102538.53;4906514;29;20032;-82
2022/08/07 07:17:59;;;;;;;7.57;6.65;;;;;;;18.20;60.95;102545.97;4923944;29;20410;-81
2022/08/07 07:20:48;;;;;;;10.75;6.60;;;;;;;18.48;61.36;102549.91;4918905;29;20426;-82
2022/08/07 07:23:14;;;;;;;8.13;6.93;;;;;;;18.66;59.15;102547.50;4909068;29;20051;-82
2022/08/07 07:25:42;;;;;;;7.85;6.10;;;;;;;18.98;59.62;102538.53;4918170;29;20017;-82
2022/08/07 07:28:15;;;;;;;12.60;6.60;;;;;;;19.26;57.75;102535.31;4910602;29;20044;-83
2022/08/07 07:30:50;;;;;;;8.93;6.55;;;;;;;19.50;57.22;102533.19;4905501;29;20389;-82
2022/08/07 07:33:18;;;;;;;13.02;6.68;;;;;;;19.90;55.33;102537.75;4906288;29;20032;-83
2022/08/07 07:35:49;;;;;;;8.07;6.43;;;;;;;20.23;56.78;102532.97;4925106;29;20086;-82
2022/08/07 07:41:26;;;;;;;6.75;5.45;;;;;;;20.62;53.73;102524.06;4891383;29;20080;-83
2022/08/07 07:43:52;;;;;;;8.13;5.90;;;;;;;20.92;52.21;102516.78;4906627;29;20040;-83
2022/08/07 07:46:21;;;;;;;8.65;5.95;;;;;;;21.20;51.88;102518.59;4908097;29;20036;-83
2022/08/07 07:48:47;;;;;;;8.63;6.07;;;;;;;21.47;51.38;102510.66;4909893;29;20450;-83
2022/08/07 07:51:14;;;;;;;7.88;5.45;;;;;;;21.61;50.22;102513.75;4905805;29;20112;-84
2022/08/07 07:53:43;;;;;;;8.82;5.00;;;;;;;21.83;49.27;102508.94;4924566;29;20051;-84
2022/08/07 07:56:11;;;;;;;6.65;5.10;;;;;;;21.98;47.77;102510.16;4918073;29;20462;-82
2022/08/07 07:58:38;;;;;;;8.13;5.32;;;;;;;22.18;47.58;102513.56;4915840;29;20485;-83
2022/08/07 08:01:07;;;;;;;10.20;5.03;;;;;;;22.33;47.22;102510.34;4921647;29;20405;-82
2022/08/07 08:03:34;;;;;;;8.07;5.72;;;;;;;22.58;46.96;102511.41;4904887;29;20032;-82
2022/08/07 08:06:00;;;;;;;7.63;5.30;;;;;;;22.64;47.16;102510.78;4902657;29;20488;-82
2022/08/07 08:08:29;;;;;;;6.50;5.22;;;;;;;22.79;45.20;102512.94;4899407;29;20032;-81
2022/08/07 08:10:55;;;;;;;;;;;;;;;23.08;49.83;102509.94;4899667;29;20096;-82
2022/08/07 08:13:23;;;;;;;9.45;5.10;;;;;;;23.23;45.60;102510.19;4901531;29;19915;-80
2022/08/07 08:15:49;;;;;;;5.97;5.00;;;;;;;23.45;46.41;102508.81;4914123;29;20025;-81
2022/08/07 08:18:16;;;;;;;9.98;5.13;;;;;;;23.57;43.84;102515.63;4905543;29;20034;-80
2022/08/07 08:20:42;;;;;;;7.55;4.80;;;;;;;23.99;44.05;102517.50;4857005;29;20490;-81
2022/08/07 08:28:48;;;;;;;8.88;3.78;;;;;;;24.61;40.85;102510.81;4920126;29;20513;-80
2022/08/07 08:31:19;;;;;;;5.18;4.20;;;;;;;24.59;42.42;102499.25;4916454;29;20035;-81
2022/08/07 08:33:46;;;;;;;6.30;3.50;;;;;;;24.95;41.92;102517.94;4891636;29;20031;-81
2022/08/07 08:36:15;;;;;;;4.32;3.30;;;;;;;25.15;39.54;102507.53;4903811;29;20037;-81
2022/08/07 08:38:43;;;;;;;5.97;3.40;;;;;;;25.29;40.05;102509.53;4890651;29;20029;-81
2022/08/07 08:41:37;;;;;;;4.10;3.70;;;;;;;25.59;41.33;102512.47;4898413;29;20046;-81
2022/08/07 08:44:14;;;;;;;4.07;3.58;;;;;;;25.63;39.17;102505.66;4890523;29;20465;-81
2022/08/07 08:46:50;;;;;;;5.82;3.30;;;;;;;25.97;38.87;102503.66;4914243;29;20032;-80
2022/08/07 08:49:23;;;;;;;5.60;3.30;;;;;;;26.16;38.93;102499.59;4915430;29;20615;-81
2022/08/07 08:52:06;;;;;;;4.95;3.20;;;;;;;26.27;38.22;102517.41;4896188;29;20029;-81
2022/08/07 08:54:40;;;;;;;4.05;3.05;;;;;;;26.67;37.34;102513.53;4911517;29;20045;-80
2022/08/07 08:57:20;;;;;;;5.28;3.20;;;;;;;26.67;37.21;102504.50;4902703;29;20057;-80
2022/08/07 09:00:03;;;;;;;4.82;3.30;;;;;;;26.79;37.99;102505.75;4897886;29;20146;-80
2022/08/07 09:02:37;;;;;;;4.55;2.95;;;;;;;26.92;37.28;102510.56;4910503;29;20037;-81
2022/08/07 09:05:47;;;;;;;4.93;3.70;;;;;;;27.12;37.37;102506.25;4931049;29;20040;-81
2022/08/07 09:08:33;;;;;;;5.68;3.75;;;;;;;27.36;36.99;102496.13;4892475;29;20388;-82
2022/08/07 09:11:29;;;;;;;4.90;3.40;;;;;;;27.64;35.71;102496.28;4904373;29;20056;-83
2022/08/07 09:14:05;;;;;;;3.80;3.03;;;;;;;27.81;33.96;102499.63;4926849;29;20028;-83
2022/08/07 09:16:38;;;;;;;3.35;2.72;;;;;;;27.87;32.03;102495.28;4913332;29;20085;-82
2022/08/07 09:19:19;;;;;;;3.42;2.78;;;;;;;28.10;34.37;102503.34;4899867;29;20029;-83
2022/08/07 09:22:26;;;;;;;3.10;2.45;;;;;;;28.34;34.83;102498.53;4932789;29;20043;-81
2022/08/07 09:27:58;;;;;;;3.55;3.03;;;;;;;28.37;32.03;102487.19;4932119;29;20131;-82
2022/08/07 09:30:28;;;;;;;4.28;3.00;;;;;;;28.81;31.27;102486.09;4925527;29;20088;-81
2022/08/07 09:33:07;;;;;;;7.47;3.80;;;;;;;28.92;31.96;102482.81;4899363;29;20033;-82
2022/08/07 09:35:45;;;;;;;5.65;4.05;;;;;;;28.83;33.99;102485.91;4909594;29;20033;-82
2022/08/07 09:38:27;;;;;;;4.25;3.38;;;;;;;28.88;32.03;102487.00;4897877;29;20021;-82
2022/08/07 09:41:11;;;;;;;4.05;3.05;;;;;;;29.24;31.73;102480.50;4903345;29;20036;-82
2022/08/07 09:43:42;;;;;;;3.72;3.00;;;;;;;29.18;31.36;102478.59;4882271;29;20398;-81
2022/08/07 09:46:40;;;;;;;3.38;2.95;;;;;;;29.70;32.31;102479.84;4910478;29;20024;-81
2022/08/07 09:49:33;;;;;;;4.47;3.10;;;;;;;29.76;30.46;102470.00;4923843;29;20032;-82
2022/08/07 09:52:18;;;;;;;4.30;3.08;;;;;;;30.04;32.17;102475.34;4911078;29;20033;-82
2022/08/07 09:54:53;;;;;;;4.00;3.03;;;;;;;30.21;30.17;102462.09;4925830;29;20024;-82
2022/08/07 09:58:05;;;;;;;3.97;3.10;;;;;;;30.13;30.38;102465.03;4922035;29;20114;-81
2022/08/07 10:00:55;;;;;;;4.25;2.65;;;;;;;30.39;30.55;102457.88;4914564;29;20464;-81
2022/08/07 10:03:39;;;;;;;2.90;2.50;;;;;;;30.64;29.97;102460.81;4902037;29;20084;-82
2022/08/07 10:06:30;;;;;;;3.17;2.50;;;;;;;30.73;30.04;102456.81;4901180;29;20115;-82
2022/08/07 10:09:11;;;;;;;2.92;2.50;;;;;;;30.71;28.36;102450.69;4902482;29;20064;-80
2022/08/07 10:11:50;;;;;;;2.78;2.45;;;;;;;30.91;28.22;102447.91;4848457;29;20045;-82
2022/08/07 10:14:27;;;;;;;3.55;2.65;;;;;;;30.78;27.69;102445.19;4882910;29;20033;-82
2022/08/07 10:17:33;;;;;;;2.47;2.20;;;;;;;31.25;28.24;102445.09;4885474;29;20068;-82
2022/08/07 10:20:15;;;;;;;4.13;1.88;;;;;;;31.25;26.05;102436.84;4900017;29;20051;-82
2022/08/07 10:23:19;;;;;;;2.90;2.17;;;;;;;31.36;27.88;102438.91;4935438;29;20064;-82
2022/08/07 10:26:04;;;;;;;2.53;2.08;;;;;;;31.38;27.29;102423.06;4902566;29;20092;-82
2022/08/07 10:28:50;;;;;;;6.90;2.40;;;;;;;31.52;26.41;102435.66;4924152;29;20052;-82
2022/08/07 10:31:40;;;;;;;3.33;2.30;;;;;;;31.60;27.52;102439.25;4925856;29;20032;-81
2022/08/07 10:34:30;;;;;;;3.20;2.35;;;;;;;31.76;26.95;102430.50;4926468;29;20036;-82
2022/08/07 10:37:26;;;;;;;4.97;2.60;;;;;;;31.73;27.00;102428.19;4900650;29;20032;-82
2022/08/07 10:40:05;;;;;;;3.38;2.20;;;;;;;32.03;26.74;102433.88;4877223;29;20045;-82
2022/08/07 10:42:30;;;;;;;3.67;2.20;;;;;;;32.37;24.06;102431.72;4911956;29;20032;-81
2022/08/07 10:45:07;;;;;;;5.07;2.33;;;;;;;32.21;24.21;102419.38;4917387;29;20446;-82
2022/08/07 10:47:43;;;;;;;4.03;2.60;;;;;;;32.16;24.16;102419.22;4896116;29;20029;-82
2022/08/07 10:50:32;;;;;;;6.40;2.05;;;;;;;32.08;23.25;102422.25;4927279;29;20050;-80
2022/08/07 10:53:19;;;;;;;2.38;1.88;;;;;;;32.27;24.66;102423.13;4904094;29;20049;-82
2022/08/07 10:56:08;;;;;;;4.25;2.08;;;;;;;32.24;24.99;102416.19;4920105;29;20430;-82
2022/08/07 10:58:56;;;;;;;3.70;2.00;;;;;;;32.41;25.20;102415.59;4897871;29;20430;-80
2022/08/07 11:01:40;;;;;;;2.70;1.95;;;;;;;32.41;24.85;102410.97;4918883;29;20032;-80
2022/08/07 11:04:39;;;;;;;2.78;1.90;;;;;;;32.52;24.24;102411.28;4918523;29;20040;-80
2022/08/07 11:07:30;;;;;;;3.67;1.80;;;;;;;32.24;23.24;102396.09;4921484;29;20029;-79
2022/08/07 11:10:00;;;;;;;3.75;2.00;;;;;;;32.25;23.59;102398.63;4908836;29;20032;-80
2022/08/07 11:12:36;;;;;;;2.15;1.60;;;;;;;32.35;23.46;102394.53;4920330;29;20031;-79
2022/08/07 11:15:10;;;;;;;2.58;1.88;;;;;;;32.38;22.63;102385.81;4886213;29;20104;-80
2022/08/07 11:17:35;;;;;;;3.08;1.98;;;;;;;32.29;21.71;102388.00;4898549;29;20662;-81
2022/08/07 11:20:06;;;;;;;2.23;1.90;;;;;;;32.15;22.53;102378.22;4899882;29;20111;-81
2022/08/07 11:22:54;;;;;;;3.47;2.28;;;;;;;32.45;23.56;102376.41;4899763;29;20124;-81
2022/08/07 11:25:55;;;;;;;2.65;1.92;;;;;;;32.42;23.66;102382.38;4914842;29;20040;-82
2022/08/07 11:28:40;;;;;;;3.42;1.92;;;;;;;33.01;24.96;102365.44;4850149;29;20191;-82
2022/08/07 11:31:11;;;;;;;3.40;2.05;;;;;;;32.73;23.60;102374.28;4895776;29;20044;-81
2022/08/07 11:33:55;;;;;;;2.97;2.03;;;;;;;32.77;24.58;102365.31;4899797;29;20116;-81
2022/08/07 11:36:42;;;;;;;3.22;2.05;;;;;;;32.26;22.90;102371.97;4899996;29;20028;-81
2022/08/07 11:39:31;;;;;;;2.10;1.90;;;;;;;32.49;24.03;102359.47;4915746;29;20070;-82
2022/08/07 11:42:14;;;;;;;3.03;1.90;;;;;;;32.59;24.33;102365.28;4918403;29;20043;-81
2022/08/07 11:45:04;;;;;;;2.55;2.13;;;;;;;32.38;23.85;102364.66;4918721;29;20104;-81
2022/08/07 11:47:44;;;;;;;2.35;1.80;;;;;;;32.34;24.16;102359.84;4902122;29;20416;-81
2022/08/07 11:50:28;;;;;;;4.93;2.05;;;;;;;32.61;23.47;102358.53;4919547;29;20028;-82
2022/08/07 11:53:12;;;;;;;2.47;2.03;;;;;;;32.14;24.07;102360.84;4888609;29;20414;-82
2022/08/07 11:55:53;;;;;;;3.47;1.90;;;;;;;32.29;23.41;102357.75;4889514;29;20363;-82
2022/08/07 11:58:48;;;;;;;2.47;2.00;;;;;;;32.11;23.55;102357.72;4883096;29;20037;-82